sensor_id;sensor_type;location;lat;lon;timestamp;pressure;altitude;pressure_sealevel;temperature;humidity
41688;BME280;27371;42.686;23.362;2023-09-30T00:03:32;166599.53;;;16.86;59.18
41688;BME280;27371;42.686;23.362;2023-09-30T00:05:59;166625.03;;;16.96;59.33
41688;BME280;27371;42.686;23.362;2023-09-30T00:08:25;166604.91;;;16.88;59.62
41688;BME280;27371;42.686;23.362;2023-09-30T00:10:50;166634.41;;;16.99;59.34
41688;BME280;27371;42.686;23.362;2023-09-30T00:13:18;166630.38;;;16.98;59.68
41688;BME280;27371;42.686;23.362;2023-09-30T00:15:43;166623.66;;;16.95;59.87
41688;BME280;27371;42.686;23.362;2023-09-30T00:18:09;166635.75;;;17.00;59.79
41688;BME280;27371;42.686;23.362;2023-09-30T00:20:34;166638.41;;;17.01;59.60
41688;BME280;27371;42.686;23.362;2023-09-30T00:23:00;166622.34;;;16.95;59.76
41688;BME280;27371;42.686;23.362;2023-09-30T00:25:25;166638.41;;;17.01;59.61
41688;BME280;27371;42.686;23.362;2023-09-30T00:27:51;166641.13;;;17.02;59.98
41688;BME280;27371;42.686;23.362;2023-09-30T00:30:16;166643.78;;;17.03;60.23
41688;BME280;27371;42.686;23.362;2023-09-30T00:32:42;166621.00;;;16.94;60.20
41688;BME280;27371;42.686;23.362;2023-09-30T00:35:07;166623.66;;;16.95;59.98
41688;BME280;27371;42.686;23.362;2023-09-30T00:37:40;166619.66;;;16.94;60.55
41688;BME280;27371;42.686;23.362;2023-09-30T00:40:06;166631.75;;;16.98;60.27
41688;BME280;27371;42.686;23.362;2023-09-30T00:42:32;166626.38;;;16.96;60.43
41688;BME280;27371;42.686;23.362;2023-09-30T00:44:58;166658.53;;;17.08;60.39
41688;BME280;27371;42.686;23.362;2023-09-30T00:47:23;166657.22;;;17.08;60.14
41688;BME280;27371;42.686;23.362;2023-09-30T00:49:52;166643.78;;;17.03;59.92
41688;BME280;27371;42.686;23.362;2023-09-30T00:52:19;166629.03;;;16.97;59.84
41688;BME280;27371;42.686;23.362;2023-09-30T00:54:45;166626.38;;;16.96;59.90
41688;BME280;27371;42.686;23.362;2023-09-30T00:57:12;166619.66;;;16.94;59.85
41688;BME280;27371;42.686;23.362;2023-09-30T00:59:38;166602.19;;;16.87;59.43
41688;BME280;27371;42.686;23.362;2023-09-30T01:02:06;166614.28;;;16.91;59.52
41688;BME280;27371;42.686;23.362;2023-09-30T01:04:31;166607.59;;;16.89;59.69
41688;BME280;27371;42.686;23.362;2023-09-30T01:06:57;166610.28;;;16.90;59.70
41688;BME280;27371;42.686;23.362;2023-09-30T01:09:23;166639.78;;;17.01;59.67
41688;BME280;27371;42.686;23.362;2023-09-30T01:11:49;166635.75;;;17.00;59.80
41688;BME280;27371;42.686;23.362;2023-09-30T01:14:44;166621.00;;;16.94;59.51
41688;BME280;27371;42.686;23.362;2023-09-30T01:17:09;166608.91;;;16.89;59.55
41688;BME280;27371;42.686;23.362;2023-09-30T01:19:38;166615.63;;;16.92;59.61
41688;BME280;27371;42.686;23.362;2023-09-30T01:22:04;166608.91;;;16.89;59.80
41688;BME280;27371;42.686;23.362;2023-09-30T01:24:29;166629.03;;;16.97;59.88
41688;BME280;27371;42.686;23.362;2023-09-30T01:26:55;166594.16;;;16.84;60.00
41688;BME280;27371;42.686;23.362;2023-09-30T01:29:22;166418.47;;;16.17;60.27
41688;BME280;27371;42.686;23.362;2023-09-30T01:31:48;166528.41;;;16.59;60.61
41688;BME280;27371;42.686;23.362;2023-09-30T01:34:14;166481.50;;;16.41;61.02
41688;BME280;27371;42.686;23.362;2023-09-30T01:36:43;166454.66;;;16.31;61.07
41688;BME280;27371;42.686;23.362;2023-09-30T01:39:10;166453.34;;;16.30;60.98
41688;BME280;27371;42.686;23.362;2023-09-30T01:41:36;166422.53;;;16.18;60.67
41688;BME280;27371;42.686;23.362;2023-09-30T01:44:02;166423.84;;;16.19;60.79
41688;BME280;27371;42.686;23.362;2023-09-30T01:46:27;166401.06;;;16.10;60.63
41688;BME280;27371;42.686;23.362;2023-09-30T01:48:53;166439.94;;;16.25;60.42
41688;BME280;27371;42.686;23.362;2023-09-30T01:51:18;166456.00;;;16.31;60.56
41688;BME280;27371;42.686;23.362;2023-09-30T01:53:43;166445.31;;;16.27;60.33
41688;BME280;27371;42.686;23.362;2023-09-30T01:56:09;166454.66;;;16.31;60.46
41688;BME280;27371;42.686;23.362;2023-09-30T01:58:34;166422.53;;;16.18;60.36
41688;BME280;27371;42.686;23.362;2023-09-30T02:01:03;166392.97;;;16.07;60.34
41688;BME280;27371;42.686;23.362;2023-09-30T02:03:29;166384.94;;;16.04;60.48
41688;BME280;27371;42.686;23.362;2023-09-30T02:05:56;166360.81;;;15.95;60.63
41688;BME280;27371;42.686;23.362;2023-09-30T02:08:22;166313.94;;;15.77;61.08
41688;BME280;27371;42.686;23.362;2023-09-30T02:10:47;166321.97;;;15.80;61.26
41688;BME280;27371;42.686;23.362;2023-09-30T02:13:13;166311.22;;;15.76;61.29
41688;BME280;27371;42.686;23.362;2023-09-30T02:15:42;166293.81;;;15.69;61.07
41688;BME280;27371;42.686;23.362;2023-09-30T02:18:07;166275.00;;;15.62;61.60
41688;BME280;27371;42.686;23.362;2023-09-30T02:20:33;166261.59;;;15.57;61.82
41688;BME280;27371;42.686;23.362;2023-09-30T02:22:59;166213.38;;;15.39;62.17
41688;BME280;27371;42.686;23.362;2023-09-30T02:25:24;166162.47;;;15.19;62.20
41688;BME280;27371;42.686;23.362;2023-09-30T02:27:50;166162.47;;;15.19;62.61
41688;BME280;27371;42.686;23.362;2023-09-30T02:30:16;166096.75;;;14.94;62.74
41688;BME280;27371;42.686;23.362;2023-09-30T02:32:42;166107.50;;;14.98;62.73
41688;BME280;27371;42.686;23.362;2023-09-30T02:35:11;166102.13;;;14.96;62.43
41688;BME280;27371;42.686;23.362;2023-09-30T02:37:37;166099.47;;;14.95;62.39
41688;BME280;27371;42.686;23.362;2023-09-30T02:40:06;166068.69;;;14.83;62.72
41688;BME280;27371;42.686;23.362;2023-09-30T02:42:38;166076.72;;;14.86;62.91
41688;BME280;27371;42.686;23.362;2023-09-30T02:45:05;166082.03;;;14.88;62.70
41688;BME280;27371;42.686;23.362;2023-09-30T02:47:31;166072.66;;;14.85;63.19
41688;BME280;27371;42.686;23.362;2023-09-30T02:49:57;166094.09;;;14.93;62.98
41688;BME280;27371;42.686;23.362;2023-09-30T02:52:24;166098.13;;;14.95;63.21
41688;BME280;27371;42.686;23.362;2023-09-30T02:54:49;166099.47;;;14.95;62.89
41688;BME280;27371;42.686;23.362;2023-09-30T02:57:15;166108.84;;;14.99;62.80
41688;BME280;27371;42.686;23.362;2023-09-30T02:59:41;166118.19;;;15.02;62.82
41688;BME280;27371;42.686;23.362;2023-09-30T03:02:06;166118.19;;;15.02;62.75
41688;BME280;27371;42.686;23.362;2023-09-30T03:04:32;166111.53;;;15.00;62.88
41688;BME280;27371;42.686;23.362;2023-09-30T03:06:58;166115.53;;;15.01;62.64
41688;BME280;27371;42.686;23.362;2023-09-30T03:09:23;166094.09;;;14.93;62.48
41688;BME280;27371;42.686;23.362;2023-09-30T03:11:49;166115.53;;;15.01;62.46
41688;BME280;27371;42.686;23.362;2023-09-30T03:14:15;166122.25;;;15.04;62.30
41688;BME280;27371;42.686;23.362;2023-09-30T03:16:40;166096.75;;;14.94;62.35
41688;BME280;27371;42.686;23.362;2023-09-30T03:19:07;166123.56;;;15.04;62.42
41688;BME280;27371;42.686;23.362;2023-09-30T03:21:34;166115.53;;;15.01;62.04
41688;BME280;27371;42.686;23.362;2023-09-30T03:24:03;166114.22;;;15.01;61.91
41688;BME280;27371;42.686;23.362;2023-09-30T03:26:30;166095.44;;;14.93;61.68
41688;BME280;27371;42.686;23.362;2023-09-30T03:28:55;166112.88;;;15.00;61.69
41688;BME280;27371;42.686;23.362;2023-09-30T03:31:21;166111.53;;;15.00;61.74
41688;BME280;27371;42.686;23.362;2023-09-30T03:33:50;166106.16;;;14.98;61.68
41688;BME280;27371;42.686;23.362;2023-09-30T03:36:20;166090.13;;;14.91;61.75
41688;BME280;27371;42.686;23.362;2023-09-30T03:38:45;166107.50;;;14.98;61.70
41688;BME280;27371;42.686;23.362;2023-09-30T03:41:10;166104.84;;;14.97;61.84
41688;BME280;27371;42.686;23.362;2023-09-30T03:43:39;166108.84;;;14.99;61.64
41688;BME280;27371;42.686;23.362;2023-09-30T03:46:07;166102.13;;;14.96;62.05
41688;BME280;27371;42.686;23.362;2023-09-30T03:48:32;166094.09;;;14.93;61.69
41688;BME280;27371;42.686;23.362;2023-09-30T03:51:12;166074.00;;;14.85;62.07
41688;BME280;27371;42.686;23.362;2023-09-30T03:53:47;166075.38;;;14.86;62.19
41688;BME280;27371;42.686;23.362;2023-09-30T03:56:12;166059.25;;;14.80;62.33
41688;BME280;27371;42.686;23.362;2023-09-30T03:58:42;165981.56;;;14.50;62.59
41688;BME280;27371;42.686;23.362;2023-09-30T04:01:08;166020.44;;;14.65;63.18
41688;BME280;27371;42.686;23.362;2023-09-30T04:03:36;165999.00;;;14.57;63.10
41688;BME280;27371;42.686;23.362;2023-09-30T04:06:04;165958.75;;;14.41;63.36
41688;BME280;27371;42.686;23.362;2023-09-30T04:08:30;165970.81;;;14.46;63.24
41688;BME280;27371;42.686;23.362;2023-09-30T04:10:59;165965.44;;;14.44;63.66
41688;BME280;27371;42.686;23.362;2023-09-30T04:13:25;165964.13;;;14.43;63.76
41688;BME280;27371;42.686;23.362;2023-09-30T04:15:51;165941.34;;;14.35;64.09
41688;BME280;27371;42.686;23.362;2023-09-30T04:18:16;165898.50;;;14.18;64.28
41688;BME280;27371;42.686;23.362;2023-09-30T04:20:45;165856.97;;;14.02;64.07
41688;BME280;27371;42.686;23.362;2023-09-30T04:23:12;165851.66;;;14.00;64.13
41688;BME280;27371;42.686;23.362;2023-09-30T04:25:38;165827.53;;;13.91;64.50
41688;BME280;27371;42.686;23.362;2023-09-30T04:28:04;165791.38;;;13.77;64.61
41688;BME280;27371;42.686;23.362;2023-09-30T04:30:29;165811.47;;;13.85;64.62
41688;BME280;27371;42.686;23.362;2023-09-30T04:32:58;165800.72;;;13.81;64.85
41688;BME280;27371;42.686;23.362;2023-09-30T04:35:24;165798.06;;;13.80;64.62
41688;BME280;27371;42.686;23.362;2023-09-30T04:37:50;165768.63;;;13.69;64.78
41688;BME280;27371;42.686;23.362;2023-09-30T04:40:17;165799.41;;;13.80;64.72
41688;BME280;27371;42.686;23.362;2023-09-30T04:42:45;165818.16;;;13.88;64.70
41688;BME280;27371;42.686;23.362;2023-09-30T04:45:13;165826.19;;;13.91;64.65
41688;BME280;27371;42.686;23.362;2023-09-30T04:47:38;165850.28;;;14.00;64.54
41688;BME280;27371;42.686;23.362;2023-09-30T04:50:07;165834.22;;;13.94;64.32
41688;BME280;27371;42.686;23.362;2023-09-30T04:52:34;165883.78;;;14.13;64.38
41688;BME280;27371;42.686;23.362;2023-09-30T04:55:00;165893.13;;;14.16;64.12
41688;BME280;27371;42.686;23.362;2023-09-30T04:57:26;165906.53;;;14.21;64.01
41688;BME280;27371;42.686;23.362;2023-09-30T04:59:52;165895.84;;;14.17;63.97
41688;BME280;27371;42.686;23.362;2023-09-30T05:02:17;165866.38;;;14.06;64.28
41688;BME280;27371;42.686;23.362;2023-09-30T05:04:43;165855.66;;;14.02;64.98
41688;BME280;27371;42.686;23.362;2023-09-30T05:07:08;165850.28;;;14.00;65.01
41688;BME280;27371;42.686;23.362;2023-09-30T05:09:34;165898.50;;;14.18;64.64
41688;BME280;27371;42.686;23.362;2023-09-30T05:11:59;165999.00;;;14.57;64.46
41688;BME280;27371;42.686;23.362;2023-09-30T05:14:25;166090.13;;;14.91;62.81
41688;BME280;27371;42.686;23.362;2023-09-30T05:16:50;166116.88;;;15.02;61.74
41688;BME280;27371;42.686;23.362;2023-09-30T05:19:16;166130.28;;;15.07;61.13
41688;BME280;27371;42.686;23.362;2023-09-30T05:21:41;166182.50;;;15.27;61.07
41688;BME280;27371;42.686;23.362;2023-09-30T05:24:08;166214.69;;;15.39;60.61
41688;BME280;27371;42.686;23.362;2023-09-30T05:26:33;166308.56;;;15.75;59.37
41688;BME280;27371;42.686;23.362;2023-09-30T05:28:59;166324.63;;;15.81;59.15
41688;BME280;27371;42.686;23.362;2023-09-30T05:31:25;166339.38;;;15.87;58.80
41688;BME280;27371;42.686;23.362;2023-09-30T05:33:50;166379.63;;;16.02;58.19
41688;BME280;27371;42.686;23.362;2023-09-30T05:36:16;166403.72;;;16.11;58.14
41688;BME280;27371;42.686;23.362;2023-09-30T05:38:41;166431.88;;;16.22;57.79
41688;BME280;27371;42.686;23.362;2023-09-30T05:41:07;166445.31;;;16.27;57.07
41688;BME280;27371;42.686;23.362;2023-09-30T05:43:33;166450.63;;;16.29;57.45
41688;BME280;27371;42.686;23.362;2023-09-30T05:45:58;166466.75;;;16.35;57.03
41688;BME280;27371;42.686;23.362;2023-09-30T05:48:24;166556.56;;;16.69;56.33
41688;BME280;27371;42.686;23.362;2023-09-30T05:50:49;166591.50;;;16.83;55.25
41688;BME280;27371;42.686;23.362;2023-09-30T05:53:15;166642.47;;;17.02;54.29
41688;BME280;27371;42.686;23.362;2023-09-30T05:55:41;166630.38;;;16.98;54.51
41688;BME280;27371;42.686;23.362;2023-09-30T05:58:17;166631.75;;;16.98;54.73
41688;BME280;27371;42.686;23.362;2023-09-30T06:00:43;166658.53;;;17.08;54.31
41688;BME280;27371;42.686;23.362;2023-09-30T06:03:09;166666.59;;;17.11;54.47
41688;BME280;27371;42.686;23.362;2023-09-30T06:05:40;166661.25;;;17.09;54.46
41688;BME280;27371;42.686;23.362;2023-09-30T06:08:08;166712.22;;;17.29;54.22
41688;BME280;27371;42.686;23.362;2023-09-30T06:10:36;166756.50;;;17.46;53.88
41688;BME280;27371;42.686;23.362;2023-09-30T06:13:04;166777.97;;;17.54;53.74
41688;BME280;27371;42.686;23.362;2023-09-30T06:15:29;166823.56;;;17.71;53.29
41688;BME280;27371;42.686;23.362;2023-09-30T06:17:57;166843.75;;;17.79;53.01
41688;BME280;27371;42.686;23.362;2023-09-30T06:20:25;166850.47;;;17.82;53.19
41688;BME280;27371;42.686;23.362;2023-09-30T06:22:51;166858.50;;;17.85;52.69
41688;BME280;27371;42.686;23.362;2023-09-30T06:25:19;166882.63;;;17.94;52.66
41688;BME280;27371;42.686;23.362;2023-09-30T06:27:47;166857.16;;;17.84;51.70
41688;BME280;27371;42.686;23.362;2023-09-30T06:30:17;166936.34;;;18.14;51.58
41688;BME280;27371;42.686;23.362;2023-09-30T06:32:43;166967.19;;;18.26;51.52
41688;BME280;27371;42.686;23.362;2023-09-30T06:35:10;167026.25;;;18.48;50.78
41688;BME280;27371;42.686;23.362;2023-09-30T06:37:36;167047.72;;;18.57;49.57
41688;BME280;27371;42.686;23.362;2023-09-30T06:40:06;167128.31;;;18.87;48.87
41688;BME280;27371;42.686;23.362;2023-09-30T06:42:33;167155.19;;;18.98;48.28
41688;BME280;27371;42.686;23.362;2023-09-30T06:44:59;167186.06;;;19.09;47.43
41688;BME280;27371;42.686;23.362;2023-09-30T06:47:24;167227.69;;;19.25;47.21
41688;BME280;27371;42.686;23.362;2023-09-30T06:49:50;167258.56;;;19.37;47.12
41688;BME280;27371;42.686;23.362;2023-09-30T06:52:16;167277.38;;;19.44;46.16
41688;BME280;27371;42.686;23.362;2023-09-30T06:54:42;167278.72;;;19.45;46.52
41688;BME280;27371;42.686;23.362;2023-09-30T06:57:07;167266.59;;;19.40;46.58
41688;BME280;27371;42.686;23.362;2023-09-30T06:59:35;167341.91;;;19.69;45.55
41688;BME280;27371;42.686;23.362;2023-09-30T07:02:00;167411.72;;;19.95;45.32
41688;BME280;27371;42.686;23.362;2023-09-30T07:04:26;167419.75;;;19.98;44.88
41688;BME280;27371;42.686;23.362;2023-09-30T07:06:53;167468.16;;;20.17;45.05
41688;BME280;27371;42.686;23.362;2023-09-30T07:09:18;167500.41;;;20.29;44.45
41688;BME280;27371;42.686;23.362;2023-09-30T07:11:45;167535.31;;;20.42;44.10
41688;BME280;27371;42.686;23.362;2023-09-30T07:14:10;167590.47;;;20.63;43.58
41688;BME280;27371;42.686;23.362;2023-09-30T07:16:36;167632.13;;;20.79;43.19
41688;BME280;27371;42.686;23.362;2023-09-30T07:19:02;167652.31;;;20.87;42.64
41688;BME280;27371;42.686;23.362;2023-09-30T07:21:28;167641.53;;;20.83;42.96
41688;BME280;27371;42.686;23.362;2023-09-30T07:23:54;167715.44;;;21.11;41.92
41688;BME280;27371;42.686;23.362;2023-09-30T07:26:24;167759.78;;;21.28;41.67
41688;BME280;27371;42.686;23.362;2023-09-30T07:28:49;167788.06;;;21.39;41.58
41688;BME280;27371;42.686;23.362;2023-09-30T07:31:15;167800.19;;;21.43;40.99
41688;BME280;27371;42.686;23.362;2023-09-30T07:33:40;167810.91;;;21.47;40.76
41688;BME280;27371;42.686;23.362;2023-09-30T07:36:06;167833.81;;;21.56;40.92
41688;BME280;27371;42.686;23.362;2023-09-30T07:38:31;167829.75;;;21.54;39.97
41688;BME280;27371;42.686;23.362;2023-09-30T07:40:57;167836.47;;;21.57;40.27
41688;BME280;27371;42.686;23.362;2023-09-30T07:43:22;167906.41;;;21.84;39.90
41688;BME280;27371;42.686;23.362;2023-09-30T07:45:48;167976.28;;;22.10;38.94
41688;BME280;27371;42.686;23.362;2023-09-30T07:48:13;168042.22;;;22.35;38.13
41688;BME280;27371;42.686;23.362;2023-09-30T07:50:39;168086.59;;;22.52;38.20
41688;BME280;27371;42.686;23.362;2023-09-30T07:53:06;168132.38;;;22.70;37.73
41688;BME280;27371;42.686;23.362;2023-09-30T07:55:31;168184.81;;;22.89;37.10
41688;BME280;27371;42.686;23.362;2023-09-30T07:57:57;168214.47;;;23.01;36.51
41688;BME280;27371;42.686;23.362;2023-09-30T08:00:24;168260.19;;;23.18;36.65
41688;BME280;27371;42.686;23.362;2023-09-30T08:02:50;168270.97;;;23.22;36.68
41688;BME280;27371;42.686;23.362;2023-09-30T08:05:16;168283.09;;;23.27;36.40
41688;BME280;27371;42.686;23.362;2023-09-30T08:07:42;168252.13;;;23.15;36.47
41688;BME280;27371;42.686;23.362;2023-09-30T08:10:08;168261.56;;;23.19;36.10
41688;BME280;27371;42.686;23.362;2023-09-30T08:12:38;168277.69;;;23.25;36.15
41688;BME280;27371;42.686;23.362;2023-09-30T08:15:04;168355.75;;;23.54;34.92
41688;BME280;27371;42.686;23.362;2023-09-30T08:17:31;168417.69;;;23.78;34.55
41688;BME280;27371;42.686;23.362;2023-09-30T08:19:57;168437.88;;;23.86;34.69
41688;BME280;27371;42.686;23.362;2023-09-30T08:22:22;168497.09;;;24.08;34.38
41688;BME280;27371;42.686;23.362;2023-09-30T08:24:53;168491.69;;;24.06;33.75
41688;BME280;27371;42.686;23.362;2023-09-30T08:27:18;168484.94;;;24.04;34.26
41688;BME280;27371;42.686;23.362;2023-09-30T08:29:43;168475.53;;;24.00;34.07
41688;BME280;27371;42.686;23.362;2023-09-30T08:32:09;168493.03;;;24.07;34.12
41688;BME280;27371;42.686;23.362;2023-09-30T08:34:35;168528.03;;;24.20;33.81
41688;BME280;27371;42.686;23.362;2023-09-30T08:37:00;168554.97;;;24.30;33.75
41688;BME280;27371;42.686;23.362;2023-09-30T08:39:27;168569.75;;;24.36;33.37
41688;BME280;27371;42.686;23.362;2023-09-30T08:41:55;168600.75;;;24.48;32.82
41688;BME280;27371;42.686;23.362;2023-09-30T08:44:20;168660.03;;;24.70;32.51
41688;BME280;27371;42.686;23.362;2023-09-30T08:46:46;168705.81;;;24.87;31.54
41688;BME280;27371;42.686;23.362;2023-09-30T08:49:13;168705.81;;;24.87;30.27
41688;BME280;27371;42.686;23.362;2023-09-30T08:51:40;168703.06;;;24.86;30.45
41688;BME280;27371;42.686;23.362;2023-09-30T08:54:06;168731.34;;;24.97;30.33
41688;BME280;27371;42.686;23.362;2023-09-30T08:56:32;168684.25;;;24.79;30.16
41688;BME280;27371;42.686;23.362;2023-09-30T08:58:59;168755.63;;;25.06;30.28
41688;BME280;27371;42.686;23.362;2023-09-30T09:01:30;168746.16;;;25.03;30.17
41688;BME280;27371;42.686;23.362;2023-09-30T09:03:57;168774.44;;;25.14;29.78
41688;BME280;27371;42.686;23.362;2023-09-30T09:06:23;168820.31;;;25.31;29.91
41688;BME280;27371;42.686;23.362;2023-09-30T09:08:50;168812.19;;;25.28;29.39
41688;BME280;27371;42.686;23.362;2023-09-30T09:11:16;168787.97;;;25.19;29.05
41688;BME280;27371;42.686;23.362;2023-09-30T09:13:50;168767.72;;;25.11;29.59
41688;BME280;27371;42.686;23.362;2023-09-30T09:16:18;168804.13;;;25.25;29.56
41688;BME280;27371;42.686;23.362;2023-09-30T09:18:44;168829.72;;;25.35;29.59
41688;BME280;27371;42.686;23.362;2023-09-30T09:21:15;168813.56;;;25.28;28.86
41688;BME280;27371;42.686;23.362;2023-09-30T09:23:46;168767.72;;;25.11;28.63
41688;BME280;27371;42.686;23.362;2023-09-30T09:28:40;168655.97;;;24.69;29.30
41688;BME280;27371;42.686;23.362;2023-09-30T09:31:23;168643.84;;;24.64;29.21
41688;BME280;27371;42.686;23.362;2023-09-30T09:33:49;168692.34;;;24.82;29.04
41688;BME280;27371;42.686;23.362;2023-09-30T09:36:15;168716.53;;;24.92;29.26
41688;BME280;27371;42.686;23.362;2023-09-30T09:38:45;168712.53;;;24.90;29.10
41688;BME280;27371;42.686;23.362;2023-09-30T09:41:11;168716.53;;;24.92;29.44
41688;BME280;27371;42.686;23.362;2023-09-30T09:43:37;168724.63;;;24.95;29.14
41688;BME280;27371;42.686;23.362;2023-09-30T09:46:07;168758.31;;;25.07;29.25
41688;BME280;27371;42.686;23.362;2023-09-30T09:48:37;168736.75;;;24.99;28.66
41688;BME280;27371;42.686;23.362;2023-09-30T09:51:07;168696.38;;;24.84;29.10
41688;BME280;27371;42.686;23.362;2023-09-30T09:53:35;168625.03;;;24.57;29.48
41688;BME280;27371;42.686;23.362;2023-09-30T09:56:04;168607.50;;;24.50;29.52
41688;BME280;27371;42.686;23.362;2023-09-30T09:58:35;168581.91;;;24.40;29.62
41688;BME280;27371;42.686;23.362;2023-09-30T10:01:05;168522.69;;;24.18;29.13
41688;BME280;27371;42.686;23.362;2023-09-30T10:03:31;168553.63;;;24.30;29.32
41688;BME280;27371;42.686;23.362;2023-09-30T10:05:58;168569.75;;;24.36;29.10
41688;BME280;27371;42.686;23.362;2023-09-30T10:08:37;168567.09;;;24.35;29.74
41688;BME280;27371;42.686;23.362;2023-09-30T10:11:04;168545.56;;;24.27;29.88
41688;BME280;27371;42.686;23.362;2023-09-30T10:13:56;168573.81;;;24.37;29.31
41688;BME280;27371;42.686;23.362;2023-09-30T10:19:14;168606.16;;;24.50;29.34
41688;BME280;27371;42.686;23.362;2023-09-30T10:24:52;168560.34;;;24.32;27.64
41688;BME280;27371;42.686;23.362;2023-09-30T10:30:06;168428.47;;;23.82;27.95
41688;BME280;27371;42.686;23.362;2023-09-30T10:35:19;168336.91;;;23.47;27.94
41688;BME280;27371;42.686;23.362;2023-09-30T10:37:45;168296.50;;;23.32;28.66
41688;BME280;27371;42.686;23.362;2023-09-30T10:40:28;168295.16;;;23.31;28.66
41688;BME280;27371;42.686;23.362;2023-09-30T10:42:54;168328.81;;;23.44;28.43
41688;BME280;27371;42.686;23.362;2023-09-30T10:45:41;168346.31;;;23.51;28.48
41688;BME280;27371;42.686;23.362;2023-09-30T10:51:15;168357.09;;;23.55;28.33
41688;BME280;27371;42.686;23.362;2023-09-30T10:53:58;168378.63;;;23.63;27.92
41688;BME280;27371;42.686;23.362;2023-09-30T10:56:32;168389.38;;;23.67;27.85
41688;BME280;27371;42.686;23.362;2023-09-30T10:58:58;168371.88;;;23.61;27.62
41688;BME280;27371;42.686;23.362;2023-09-30T11:01:24;168382.63;;;23.65;28.02
41688;BME280;27371;42.686;23.362;2023-09-30T11:03:55;168377.28;;;23.63;27.84
41688;BME280;27371;42.686;23.362;2023-09-30T11:06:23;168402.88;;;23.72;27.88
41688;BME280;27371;42.686;23.362;2023-09-30T11:09:00;168398.88;;;23.71;27.72
41688;BME280;27371;42.686;23.362;2023-09-30T11:11:33;168408.28;;;23.74;27.85
41688;BME280;27371;42.686;23.362;2023-09-30T11:13:59;168406.94;;;23.74;27.82
41688;BME280;27371;42.686;23.362;2023-09-30T11:16:24;168423.06;;;23.80;27.98
41688;BME280;27371;42.686;23.362;2023-09-30T11:18:53;168454.00;;;23.92;28.35
41688;BME280;27371;42.686;23.362;2023-09-30T11:21:19;168472.88;;;23.99;27.87
41688;BME280;27371;42.686;23.362;2023-09-30T11:23:45;168439.22;;;23.86;27.73
41688;BME280;27371;42.686;23.362;2023-09-30T11:26:11;168466.16;;;23.96;27.96
41688;BME280;27371;42.686;23.362;2023-09-30T11:28:40;168451.34;;;23.91;28.00
41688;BME280;27371;42.686;23.362;2023-09-30T11:31:11;168444.59;;;23.88;27.94
41688;BME280;27371;42.686;23.362;2023-09-30T11:33:49;168448.63;;;23.90;27.94
41688;BME280;27371;42.686;23.362;2023-09-30T11:36:20;168423.06;;;23.80;27.73
41688;BME280;27371;42.686;23.362;2023-09-30T11:38:50;168396.09;;;23.70;28.41
41688;BME280;27371;42.686;23.362;2023-09-30T11:41:21;168406.94;;;23.74;28.21
41688;BME280;27371;42.686;23.362;2023-09-30T11:46:31;168404.22;;;23.73;28.66
41688;BME280;27371;42.686;23.362;2023-09-30T11:49:04;168396.09;;;23.70;29.02
41688;BME280;27371;42.686;23.362;2023-09-30T11:51:43;168420.34;;;23.79;29.02
41688;BME280;27371;42.686;23.362;2023-09-30T11:54:14;168441.88;;;23.87;29.17
41688;BME280;27371;42.686;23.362;2023-09-30T11:56:39;168458.06;;;23.93;28.77
41688;BME280;27371;42.686;23.362;2023-09-30T11:59:05;168425.75;;;23.81;29.08
41688;BME280;27371;42.686;23.362;2023-09-30T12:01:30;168435.19;;;23.85;29.17
41688;BME280;27371;42.686;23.362;2023-09-30T12:04:00;168435.19;;;23.85;29.04
41688;BME280;27371;42.686;23.362;2023-09-30T12:06:26;168440.53;;;23.87;28.80
41688;BME280;27371;42.686;23.362;2023-09-30T12:08:51;168429.81;;;23.83;28.85
41688;BME280;27371;42.686;23.362;2023-09-30T12:11:21;168437.88;;;23.86;28.83
41688;BME280;27371;42.686;23.362;2023-09-30T12:13:49;168455.34;;;23.92;28.72
41688;BME280;27371;42.686;23.362;2023-09-30T12:16:18;168460.75;;;23.94;28.80
41688;BME280;27371;42.686;23.362;2023-09-30T12:18:45;168445.94;;;23.89;28.47
41688;BME280;27371;42.686;23.362;2023-09-30T12:21:11;168433.81;;;23.84;28.17
41688;BME280;27371;42.686;23.362;2023-09-30T12:23:39;168417.69;;;23.78;28.15
41688;BME280;27371;42.686;23.362;2023-09-30T12:26:04;168437.88;;;23.86;28.41
41688;BME280;27371;42.686;23.362;2023-09-30T12:28:31;168445.94;;;23.89;28.41
41688;BME280;27371;42.686;23.362;2023-09-30T12:30:58;168421.75;;;23.80;28.16
41688;BME280;27371;42.686;23.362;2023-09-30T12:33:23;168472.88;;;23.99;28.21
41688;BME280;27371;42.686;23.362;2023-09-30T12:35:49;168501.13;;;24.10;28.41
41688;BME280;27371;42.686;23.362;2023-09-30T12:38:14;168513.22;;;24.14;28.58
41688;BME280;27371;42.686;23.362;2023-09-30T12:40:41;168553.63;;;24.30;28.52
41688;BME280;27371;42.686;23.362;2023-09-30T12:43:09;168588.63;;;24.43;28.19
41688;BME280;27371;42.686;23.362;2023-09-30T12:45:34;168528.03;;;24.20;28.12
41688;BME280;27371;42.686;23.362;2023-09-30T12:47:59;168557.63;;;24.31;28.17
41688;BME280;27371;42.686;23.362;2023-09-30T12:50:25;168536.09;;;24.23;28.31
41688;BME280;27371;42.686;23.362;2023-09-30T12:52:50;168517.28;;;24.16;27.81
41688;BME280;27371;42.686;23.362;2023-09-30T12:55:16;168432.47;;;23.84;28.18
41688;BME280;27371;42.686;23.362;2023-09-30T12:57:41;168501.13;;;24.10;28.43
41688;BME280;27371;42.686;23.362;2023-09-30T13:00:07;168494.41;;;24.07;28.29
41688;BME280;27371;42.686;23.362;2023-09-30T13:02:35;168466.16;;;23.96;28.35